sensor_id;sensor_type;location;lat;lon;timestamp;P1;durP1;ratioP1;P2;durP2;ratioP2
75413;SDS011;64758;52.122;5.404;2023-04-01T00:01:01;15.73;;;5.17;;
75413;SDS011;64758;52.122;5.404;2023-04-01T00:03:30;10.25;;;5.13;;
75413;SDS011;64758;52.122;5.404;2023-04-01T00:05:57;15.18;;;5.95;;
75413;SDS011;64758;52.122;5.404;2023-04-01T00:08:26;15.52;;;5.85;;
75413;SDS011;64758;52.122;5.404;2023-04-01T00:10:53;11.82;;;5.40;;
75413;SDS011;64758;52.122;5.404;2023-04-01T00:13:20;14.57;;;5.60;;
75413;SDS011;64758;52.122;5.404;2023-04-01T00:15:47;9.82;;;4.82;;
75413;SDS011;64758;52.122;5.404;2023-04-01T00:18:14;8.55;;;4.63;;
75413;SDS011;64758;52.122;5.404;2023-04-01T00:20:45;9.65;;;4.32;;
75413;SDS011;64758;52.122;5.404;2023-04-01T00:23:13;13.10;;;5.22;;
75413;SDS011;64758;52.122;5.404;2023-04-01T00:25:40;7.87;;;4.30;;
75413;SDS011;64758;52.122;5.404;2023-04-01T00:28:07;15.40;;;4.97;;
75413;SDS011;64758;52.122;5.404;2023-04-01T00:30:35;17.08;;;5.40;;
75413;SDS011;64758;52.122;5.404;2023-04-01T00:33:02;13.93;;;4.70;;
75413;SDS011;64758;52.122;5.404;2023-04-01T00:35:29;16.50;;;5.43;;
75413;SDS011;64758;52.122;5.404;2023-04-01T00:37:56;11.30;;;4.43;;
75413;SDS011;64758;52.122;5.404;2023-04-01T00:40:28;14.57;;;4.43;;
75413;SDS011;64758;52.122;5.404;2023-04-01T00:42:57;14.05;;;5.45;;
75413;SDS011;64758;52.122;5.404;2023-04-01T00:45:25;15.82;;;5.13;;
75413;SDS011;64758;52.122;5.404;2023-04-01T00:47:56;12.10;;;5.05;;
75413;SDS011;64758;52.122;5.404;2023-04-01T00:50:26;12.17;;;5.10;;
75413;SDS011;64758;52.122;5.404;2023-04-01T00:52:55;16.85;;;5.38;;
75413;SDS011;64758;52.122;5.404;2023-04-01T00:55:21;16.73;;;6.18;;
75413;SDS011;64758;52.122;5.404;2023-04-01T00:57:49;15.93;;;5.40;;
75413;SDS011;64758;52.122;5.404;2023-04-01T01:00:18;18.08;;;5.43;;
75413;SDS011;64758;52.122;5.404;2023-04-01T01:02:45;14.93;;;5.40;;
75413;SDS011;64758;52.122;5.404;2023-04-01T01:05:16;11.73;;;5.00;;
75413;SDS011;64758;52.122;5.404;2023-04-01T01:10:17;15.93;;;5.97;;
75413;SDS011;64758;52.122;5.404;2023-04-01T01:15:47;15.37;;;4.87;;
75413;SDS011;64758;52.122;5.404;2023-04-01T01:18:40;15.95;;;5.43;;
75413;SDS011;64758;52.122;5.404;2023-04-01T01:37:36;11.85;;;4.97;;
75413;SDS011;64758;52.122;5.404;2023-04-01T01:40:06;12.52;;;5.18;;
75413;SDS011;64758;52.122;5.404;2023-04-01T01:42:35;10.93;;;4.30;;
75413;SDS011;64758;52.122;5.404;2023-04-01T01:45:06;11.52;;;4.15;;
75413;SDS011;64758;52.122;5.404;2023-04-01T01:47:35;7.63;;;2.97;;
75413;SDS011;64758;52.122;5.404;2023-04-01T01:50:03;6.22;;;2.83;;
75413;SDS011;64758;52.122;5.404;2023-04-01T01:52:31;5.82;;;2.28;;
75413;SDS011;64758;52.122;5.404;2023-04-01T01:54:58;4.30;;;2.30;;
75413;SDS011;64758;52.122;5.404;2023-04-01T01:57:35;5.75;;;2.13;;
75413;SDS011;64758;52.122;5.404;2023-04-01T02:00:08;4.90;;;1.90;;
75413;SDS011;64758;52.122;5.404;2023-04-01T02:02:40;5.80;;;2.53;;
75413;SDS011;64758;52.122;5.404;2023-04-01T02:05:14;4.50;;;2.38;;
75413;SDS011;64758;52.122;5.404;2023-04-01T02:07:46;6.13;;;2.23;;
75413;SDS011;64758;52.122;5.404;2023-04-01T02:10:20;5.20;;;1.95;;
75413;SDS011;64758;52.122;5.404;2023-04-01T02:12:51;3.83;;;2.20;;
75413;SDS011;64758;52.122;5.404;2023-04-01T02:15:22;5.32;;;1.67;;
75413;SDS011;64758;52.122;5.404;2023-04-01T02:17:52;2.90;;;1.63;;
75413;SDS011;64758;52.122;5.404;2023-04-01T02:20:21;3.10;;;1.40;;
75413;SDS011;64758;52.122;5.404;2023-04-01T02:22:51;5.32;;;1.40;;
75413;SDS011;64758;52.122;5.404;2023-04-01T02:25:22;3.97;;;1.67;;
75413;SDS011;64758;52.122;5.404;2023-04-01T02:27:51;5.22;;;1.85;;
75413;SDS011;64758;52.122;5.404;2023-04-01T02:30:20;4.30;;;1.60;;
75413;SDS011;64758;52.122;5.404;2023-04-01T02:32:47;4.27;;;1.53;;
75413;SDS011;64758;52.122;5.404;2023-04-01T02:35:15;5.30;;;1.42;;
75413;SDS011;64758;52.122;5.404;2023-04-01T02:37:44;4.43;;;1.88;;
75413;SDS011;64758;52.122;5.404;2023-04-01T02:40:15;6.40;;;1.80;;
75413;SDS011;64758;52.122;5.404;2023-04-01T02:42:42;7.50;;;2.38;;
75413;SDS011;64758;52.122;5.404;2023-04-01T02:45:09;5.60;;;1.60;;
75413;SDS011;64758;52.122;5.404;2023-04-01T02:47:36;5.03;;;2.13;;
75413;SDS011;64758;52.122;5.404;2023-04-01T02:50:03;5.90;;;2.55;;
75413;SDS011;64758;52.122;5.404;2023-04-01T02:52:31;5.13;;;1.85;;
75413;SDS011;64758;52.122;5.404;2023-04-01T02:54:57;5.15;;;2.00;;
75413;SDS011;64758;52.122;5.404;2023-04-01T02:57:24;4.77;;;2.00;;
75413;SDS011;64758;52.122;5.404;2023-04-01T02:59:51;5.03;;;2.30;;
75413;SDS011;64758;52.122;5.404;2023-04-01T03:02:18;4.72;;;2.13;;
75413;SDS011;64758;52.122;5.404;2023-04-01T03:04:44;5.95;;;2.03;;
75413;SDS011;64758;52.122;5.404;2023-04-01T03:07:11;4.75;;;1.95;;
75413;SDS011;64758;52.122;5.404;2023-04-01T03:09:38;3.53;;;1.63;;
75413;SDS011;64758;52.122;5.404;2023-04-01T03:12:05;5.47;;;1.70;;
75413;SDS011;64758;52.122;5.404;2023-04-01T03:14:32;3.65;;;1.77;;
75413;SDS011;64758;52.122;5.404;2023-04-01T03:16:58;5.47;;;1.20;;
75413;SDS011;64758;52.122;5.404;2023-04-01T03:19:25;3.55;;;1.40;;
75413;SDS011;64758;52.122;5.404;2023-04-01T03:21:51;2.27;;;1.13;;
75413;SDS011;64758;52.122;5.404;2023-04-01T03:24:18;3.53;;;1.25;;
75413;SDS011;64758;52.122;5.404;2023-04-01T03:26:44;4.47;;;1.60;;
75413;SDS011;64758;52.122;5.404;2023-04-01T03:29:11;5.50;;;1.58;;
75413;SDS011;64758;52.122;5.404;2023-04-01T03:31:37;2.92;;;1.45;;
75413;SDS011;64758;52.122;5.404;2023-04-01T03:34:04;2.13;;;1.10;;
75413;SDS011;64758;52.122;5.404;2023-04-01T03:36:30;4.53;;;1.67;;
75413;SDS011;64758;52.122;5.404;2023-04-01T03:38:57;4.07;;;1.88;;
75413;SDS011;64758;52.122;5.404;2023-04-01T03:41:23;5.57;;;1.88;;
75413;SDS011;64758;52.122;5.404;2023-04-01T03:43:52;3.33;;;1.70;;
75413;SDS011;64758;52.122;5.404;2023-04-01T03:46:19;4.57;;;1.93;;
75413;SDS011;64758;52.122;5.404;2023-04-01T03:48:46;3.70;;;1.92;;
75413;SDS011;64758;52.122;5.404;2023-04-01T03:51:13;4.18;;;2.13;;
75413;SDS011;64758;52.122;5.404;2023-04-01T03:53:40;4.85;;;2.45;;
75413;SDS011;64758;52.122;5.404;2023-04-01T03:56:07;6.28;;;2.70;;
75413;SDS011;64758;52.122;5.404;2023-04-01T03:58:34;4.93;;;2.50;;
75413;SDS011;64758;52.122;5.404;2023-04-01T04:01:01;4.13;;;2.50;;
75413;SDS011;64758;52.122;5.404;2023-04-01T04:03:27;4.88;;;2.80;;
75413;SDS011;64758;52.122;5.404;2023-04-01T04:05:54;6.50;;;3.15;;
75413;SDS011;64758;52.122;5.404;2023-04-01T04:08:22;5.47;;;2.78;;
75413;SDS011;64758;52.122;5.404;2023-04-01T04:10:54;5.60;;;2.87;;
75413;SDS011;64758;52.122;5.404;2023-04-01T04:13:21;6.75;;;3.00;;
75413;SDS011;64758;52.122;5.404;2023-04-01T04:15:47;4.38;;;3.08;;
75413;SDS011;64758;52.122;5.404;2023-04-01T04:18:14;6.78;;;3.55;;
75413;SDS011;64758;52.122;5.404;2023-04-01T04:20:47;5.18;;;2.95;;
75413;SDS011;64758;52.122;5.404;2023-04-01T04:23:17;6.87;;;2.03;;
75413;SDS011;64758;52.122;5.404;2023-04-01T04:26:00;6.18;;;2.38;;
75413;SDS011;64758;52.122;5.404;2023-04-01T04:28:29;5.20;;;2.80;;
75413;SDS011;64758;52.122;5.404;2023-04-01T04:30:56;4.88;;;2.42;;
75413;SDS011;64758;52.122;5.404;2023-04-01T04:33:23;4.28;;;2.60;;
75413;SDS011;64758;52.122;5.404;2023-04-01T04:35:50;4.73;;;2.37;;
75413;SDS011;64758;52.122;5.404;2023-04-01T04:38:17;3.85;;;2.47;;
75413;SDS011;64758;52.122;5.404;2023-04-01T04:40:44;4.57;;;2.72;;
75413;SDS011;64758;52.122;5.404;2023-04-01T04:43:11;5.60;;;2.50;;
75413;SDS011;64758;52.122;5.404;2023-04-01T04:45:39;5.35;;;2.42;;
75413;SDS011;64758;52.122;5.404;2023-04-01T04:48:09;4.10;;;2.60;;
75413;SDS011;64758;52.122;5.404;2023-04-01T04:50:37;4.82;;;2.92;;
75413;SDS011;64758;52.122;5.404;2023-04-01T04:53:03;5.80;;;2.28;;
75413;SDS011;64758;52.122;5.404;2023-04-01T04:55:30;6.03;;;2.55;;
75413;SDS011;64758;52.122;5.404;2023-04-01T04:57:56;4.85;;;2.60;;
75413;SDS011;64758;52.122;5.404;2023-04-01T05:00:23;5.13;;;1.83;;
75413;SDS011;64758;52.122;5.404;2023-04-01T05:02:50;3.63;;;2.15;;
75413;SDS011;64758;52.122;5.404;2023-04-01T05:05:16;3.30;;;1.58;;
75413;SDS011;64758;52.122;5.404;2023-04-01T05:07:43;3.35;;;1.75;;
75413;SDS011;64758;52.122;5.404;2023-04-01T05:10:09;5.03;;;2.45;;
75413;SDS011;64758;52.122;5.404;2023-04-01T05:12:36;3.90;;;1.87;;
75413;SDS011;64758;52.122;5.404;2023-04-01T05:15:05;3.25;;;1.75;;
75413;SDS011;64758;52.122;5.404;2023-04-01T05:17:32;5.03;;;2.30;;
75413;SDS011;64758;52.122;5.404;2023-04-01T05:19:59;3.88;;;2.10;;
75413;SDS011;64758;52.122;5.404;2023-04-01T05:22:25;7.70;;;2.53;;
75413;SDS011;64758;52.122;5.404;2023-04-01T05:24:52;9.20;;;2.83;;
75413;SDS011;64758;52.122;5.404;2023-04-01T05:27:18;4.72;;;2.25;;
75413;SDS011;64758;52.122;5.404;2023-04-01T05:29:45;4.45;;;2.28;;
75413;SDS011;64758;52.122;5.404;2023-04-01T05:32:11;4.15;;;2.20;;
75413;SDS011;64758;52.122;5.404;2023-04-01T05:34:38;5.90;;;3.05;;
75413;SDS011;64758;52.122;5.404;2023-04-01T05:37:04;4.67;;;2.33;;
75413;SDS011;64758;52.122;5.404;2023-04-01T05:39:31;5.45;;;2.35;;
75413;SDS011;64758;52.122;5.404;2023-04-01T05:41:57;4.30;;;2.40;;
75413;SDS011;64758;52.122;5.404;2023-04-01T05:44:24;3.25;;;1.77;;
75413;SDS011;64758;52.122;5.404;2023-04-01T05:46:50;3.20;;;1.80;;
75413;SDS011;64758;52.122;5.404;2023-04-01T05:49:17;4.77;;;2.30;;
75413;SDS011;64758;52.122;5.404;2023-04-01T05:51:43;3.92;;;1.85;;
75413;SDS011;64758;52.122;5.404;2023-04-01T05:54:10;3.65;;;2.00;;
75413;SDS011;64758;52.122;5.404;2023-04-01T05:56:37;3.25;;;1.23;;
75413;SDS011;64758;52.122;5.404;2023-04-01T05:59:03;2.45;;;1.30;;
75413;SDS011;64758;52.122;5.404;2023-04-01T06:01:30;4.50;;;1.50;;
75413;SDS011;64758;52.122;5.404;2023-04-01T06:03:56;2.55;;;1.50;;
75413;SDS011;64758;52.122;5.404;2023-04-01T06:06:25;3.13;;;1.10;;
75413;SDS011;64758;52.122;5.404;2023-04-01T06:08:53;2.45;;;1.25;;
75413;SDS011;64758;52.122;5.404;2023-04-01T06:11:26;3.22;;;1.27;;
75413;SDS011;64758;52.122;5.404;2023-04-01T06:22:46;3.00;;;1.50;;
75413;SDS011;64758;52.122;5.404;2023-04-01T06:31:00;2.72;;;1.30;;
75413;SDS011;64758;52.122;5.404;2023-04-01T06:53:33;2.60;;;0.90;;
75413;SDS011;64758;52.122;5.404;2023-04-01T06:56:04;2.90;;;1.37;;
75413;SDS011;64758;52.122;5.404;2023-04-01T06:58:36;2.80;;;0.73;;
75413;SDS011;64758;52.122;5.404;2023-04-01T07:01:07;3.20;;;1.02;;
75413;SDS011;64758;52.122;5.404;2023-04-01T07:03:39;1.98;;;0.88;;
75413;SDS011;64758;52.122;5.404;2023-04-01T07:06:12;2.00;;;0.88;;
75413;SDS011;64758;52.122;5.404;2023-04-01T07:08:46;2.10;;;0.83;;
75413;SDS011;64758;52.122;5.404;2023-04-01T07:11:20;1.88;;;0.75;;
75413;SDS011;64758;52.122;5.404;2023-04-01T07:14:01;2.15;;;1.02;;
75413;SDS011;64758;52.122;5.404;2023-04-01T07:16:34;1.90;;;0.90;;
75413;SDS011;64758;52.122;5.404;2023-04-01T07:19:14;2.60;;;1.42;;
75413;SDS011;64758;52.122;5.404;2023-04-01T07:24:22;3.60;;;1.40;;
75413;SDS011;64758;52.122;5.404;2023-04-01T07:26:54;2.40;;;1.45;;
75413;SDS011;64758;52.122;5.404;2023-04-01T07:29:22;3.15;;;1.60;;
75413;SDS011;64758;52.122;5.404;2023-04-01T07:37:09;2.97;;;1.50;;
75413;SDS011;64758;52.122;5.404;2023-04-01T07:45:24;2.90;;;1.48;;
75413;SDS011;64758;52.122;5.404;2023-04-01T07:53:34;3.83;;;1.90;;
75413;SDS011;64758;52.122;5.404;2023-04-01T08:01:48;4.73;;;2.27;;
75413;SDS011;64758;52.122;5.404;2023-04-01T08:04:25;3.65;;;2.03;;
75413;SDS011;64758;52.122;5.404;2023-04-01T08:12:36;4.53;;;2.17;;
75413;SDS011;64758;52.122;5.404;2023-04-01T08:18:03;4.50;;;2.28;;
75413;SDS011;64758;52.122;5.404;2023-04-01T08:28:32;4.37;;;2.27;;
75413;SDS011;64758;52.122;5.404;2023-04-01T08:33:45;5.00;;;2.50;;
75413;SDS011;64758;52.122;5.404;2023-04-01T08:36:17;4.53;;;2.08;;
75413;SDS011;64758;52.122;5.404;2023-04-01T08:38:55;3.97;;;2.35;;
75413;SDS011;64758;52.122;5.404;2023-04-01T08:41:33;4.27;;;2.37;;
75413;SDS011;64758;52.122;5.404;2023-04-01T08:44:19;4.75;;;2.22;;
75413;SDS011;64758;52.122;5.404;2023-04-01T08:49:45;4.72;;;2.20;;
75413;SDS011;64758;52.122;5.404;2023-04-01T09:00:30;5.35;;;2.50;;
75413;SDS011;64758;52.122;5.404;2023-04-01T09:31:39;3.15;;;1.95;;
75413;SDS011;64758;52.122;5.404;2023-04-01T09:42:44;4.20;;;2.25;;
75413;SDS011;64758;52.122;5.404;2023-04-01T09:45:33;5.50;;;2.28;;
75413;SDS011;64758;52.122;5.404;2023-04-01T09:51:11;5.90;;;2.80;;
75413;SDS011;64758;52.122;5.404;2023-04-01T10:36:45;4.53;;;2.83;;
75413;SDS011;64758;52.122;5.404;2023-04-01T10:40:12;5.93;;;3.63;;
75413;SDS011;64758;52.122;5.404;2023-04-01T10:45:30;6.32;;;3.38;;
75413;SDS011;64758;52.122;5.404;2023-04-01T10:48:17;5.63;;;3.63;;
75413;SDS011;64758;52.122;5.404;2023-04-01T10:51:10;4.30;;;2.72;;
75413;SDS011;64758;52.122;5.404;2023-04-01T10:53:49;4.47;;;3.17;;
75413;SDS011;64758;52.122;5.404;2023-04-01T10:56:32;3.97;;;2.42;;
75413;SDS011;64758;52.122;5.404;2023-04-01T11:12:26;3.90;;;2.25;;
75413;SDS011;64758;52.122;5.404;2023-04-01T11:23:22;1.88;;;1.00;;
75413;SDS011;64758;52.122;5.404;2023-04-01T11:42:57;2.33;;;1.27;;
75413;SDS011;64758;52.122;5.404;2023-04-01T11:45:35;2.43;;;0.73;;
75413;SDS011;64758;52.122;5.404;2023-04-01T12:18:59;3.40;;;2.05;;
75413;SDS011;64758;52.122;5.404;2023-04-01T12:26:52;4.50;;;2.40;;
75413;SDS011;64758;52.122;5.404;2023-04-01T12:35:12;6.25;;;3.67;;
75413;SDS011;64758;52.122;5.404;2023-04-01T12:45:55;7.45;;;4.55;;
75413;SDS011;64758;52.122;5.404;2023-04-01T12:48:44;7.07;;;4.50;;
75413;SDS011;64758;52.122;5.404;2023-04-01T12:51:36;8.90;;;4.63;;
75413;SDS011;64758;52.122;5.404;2023-04-01T12:59:58;9.70;;;4.85;;
75413;SDS011;64758;52.122;5.404;2023-04-01T13:11:31;7.93;;;4.60;;
75413;SDS011;64758;52.122;5.404;2023-04-01T13:17:17;7.78;;;3.65;;
75413;SDS011;64758;52.122;5.404;2023-04-01T13:27:49;5.03;;;3.28;;
75413;SDS011;64758;52.122;5.404;2023-04-01T13:30:24;5.47;;;2.67;;
75413;SDS011;64758;52.122;5.404;2023-04-01T13:43:36;3.58;;;2.40;;
75413;SDS011;64758;52.122;5.404;2023-04-01T13:46:08;3.65;;;2.03;;
75413;SDS011;64758;52.122;5.404;2023-04-01T13:54:30;2.70;;;1.80;;
75413;SDS011;64758;52.122;5.404;2023-04-01T14:11:13;2.95;;;1.70;;
75413;SDS011;64758;52.122;5.404;2023-04-01T14:14:12;4.80;;;2.40;;
75413;SDS011;64758;52.122;5.404;2023-04-01T14:37:01;3.17;;;2.33;;
75413;SDS011;64758;52.122;5.404;2023-04-01T14:50:46;3.13;;;1.67;;
75413;SDS011;64758;52.122;5.404;2023-04-01T14:53:38;2.83;;;1.73;;
75413;SDS011;64758;52.122;5.404;2023-04-01T14:56:08;3.30;;;2.35;;
75413;SDS011;64758;52.122;5.404;2023-04-01T14:58:42;3.40;;;2.30;;
75413;SDS011;64758;52.122;5.404;2023-04-01T15:25:57;2.47;;;1.70;;
75413;SDS011;64758;52.122;5.404;2023-04-01T15:28:30;2.63;;;1.55;;
75413;SDS011;64758;52.122;5.404;2023-04-01T15:33:49;2.70;;;1.85;;
75413;SDS011;64758;52.122;5.404;2023-04-01T16:00:27;1.75;;;1.23;;
75413;SDS011;64758;52.122;5.404;2023-04-01T16:22:32;2.80;;;1.80;;
75413;SDS011;64758;52.122;5.404;2023-04-01T16:30:37;2.25;;;1.60;;
75413;SDS011;64758;52.122;5.404;2023-04-01T16:33:20;2.20;;;1.57;;
75413;SDS011;64758;52.122;5.404;2023-04-01T16:36:01;3.00;;;1.60;;
75413;SDS011;64758;52.122;5.404;2023-04-01T16:41:36;2.08;;;1.35;;
75413;SDS011;64758;52.122;5.404;2023-04-01T16:44:16;2.83;;;1.90;;
75413;SDS011;64758;52.122;5.404;2023-04-01T16:46:45;2.70;;;1.80;;
75413;SDS011;64758;52.122;5.404;2023-04-01T16:49:18;3.00;;;2.30;;
75413;SDS011;64758;52.122;5.404;2023-04-01T16:56:49;2.95;;;2.00;;
75413;SDS011;64758;52.122;5.404;2023-04-01T16:59:22;3.10;;;2.20;;
75413;SDS011;64758;52.122;5.404;2023-04-01T17:01:57;2.55;;;1.75;;
75413;SDS011;64758;52.122;5.404;2023-04-01T17:10:35;1.77;;;1.48;;
75413;SDS011;64758;52.122;5.404;2023-04-01T17:19:14;2.10;;;1.60;;
75413;SDS011;64758;52.122;5.404;2023-04-01T17:24:58;2.72;;;2.00;;
75413;SDS011;64758;52.122;5.404;2023-04-01T17:30:31;3.33;;;1.85;;
75413;SDS011;64758;52.122;5.404;2023-04-01T17:33:08;2.60;;;1.80;;
75413;SDS011;64758;52.122;5.404;2023-04-01T18:01:12;2.60;;;1.90;;
75413;SDS011;64758;52.122;5.404;2023-04-01T18:07:18;2.78;;;2.20;;
75413;SDS011;64758;52.122;5.404;2023-04-01T18:18:42;4.82;;;2.45;;
75413;SDS011;64758;52.122;5.404;2023-04-01T18:21:25;2.90;;;2.00;;
75413;SDS011;64758;52.122;5.404;2023-04-01T18:23:58;2.43;;;2.00;;
75413;SDS011;64758;52.122;5.404;2023-04-01T18:26:33;3.20;;;2.47;;
75413;SDS011;64758;52.122;5.404;2023-04-01T18:29:13;2.85;;;2.03;;
75413;SDS011;64758;52.122;5.404;2023-04-01T18:37:39;2.27;;;2.00;;
75413;SDS011;64758;52.122;5.404;2023-04-01T18:40:34;2.83;;;2.15;;
75413;SDS011;64758;52.122;5.404;2023-04-01T18:43:16;2.97;;;2.38;;
75413;SDS011;64758;52.122;5.404;2023-04-01T18:46:01;2.67;;;1.98;;
75413;SDS011;64758;52.122;5.404;2023-04-01T18:51:57;3.33;;;2.57;;
75413;SDS011;64758;52.122;5.404;2023-04-01T18:54:30;2.97;;;2.25;;
75413;SDS011;64758;52.122;5.404;2023-04-01T18:57:04;3.10;;;2.42;;
75413;SDS011;64758;52.122;5.404;2023-04-01T18:59:43;3.00;;;2.47;;
75413;SDS011;64758;52.122;5.404;2023-04-01T19:02:38;2.70;;;2.08;;
75413;SDS011;64758;52.122;5.404;2023-04-01T19:18:11;3.00;;;2.30;;
75413;SDS011;64758;52.122;5.404;2023-04-01T19:20:42;2.58;;;2.15;;
75413;SDS011;64758;52.122;5.404;2023-04-01T19:26:16;3.55;;;2.30;;
75413;SDS011;64758;52.122;5.404;2023-04-01T19:37:51;3.45;;;2.70;;
75413;SDS011;64758;52.122;5.404;2023-04-01T19:43:33;3.67;;;2.30;;
75413;SDS011;64758;52.122;5.404;2023-04-01T19:46:10;2.83;;;2.23;;
75413;SDS011;64758;52.122;5.404;2023-04-01T19:51:26;2.40;;;2.05;;
75413;SDS011;64758;52.122;5.404;2023-04-01T19:57:00;3.03;;;2.72;;
75413;SDS011;64758;52.122;5.404;2023-04-01T19:59:34;5.17;;;3.23;;
75413;SDS011;64758;52.122;5.404;2023-04-01T20:05:25;5.70;;;3.75;;
75413;SDS011;64758;52.122;5.404;2023-04-01T20:08:00;3.85;;;3.45;;
75413;SDS011;64758;52.122;5.404;2023-04-01T20:10:45;5.00;;;3.22;;
75413;SDS011;64758;52.122;5.404;2023-04-01T20:18:58;6.95;;;4.15;;
75413;SDS011;64758;52.122;5.404;2023-04-01T20:21:29;5.55;;;3.78;;
75413;SDS011;64758;52.122;5.404;2023-04-01T20:26:53;6.87;;;3.80;;
75413;SDS011;64758;52.122;5.404;2023-04-01T20:29:35;6.93;;;3.80;;
75413;SDS011;64758;52.122;5.404;2023-04-01T20:40:23;5.13;;;4.27;;
75413;SDS011;64758;52.122;5.404;2023-04-01T20:51:09;6.30;;;4.70;;
75413;SDS011;64758;52.122;5.404;2023-04-01T20:56:57;7.30;;;4.55;;
75413;SDS011;64758;52.122;5.404;2023-04-01T20:59:44;4.47;;;3.50;;
75413;SDS011;64758;52.122;5.404;2023-04-01T21:02:27;4.93;;;4.15;;
75413;SDS011;64758;52.122;5.404;2023-04-01T21:05:16;5.70;;;3.78;;
75413;SDS011;64758;52.122;5.404;2023-04-01T21:07:58;4.97;;;3.50;;
75413;SDS011;64758;52.122;5.404;2023-04-01T21:10:41;5.85;;;3.72;;
75413;SDS011;64758;52.122;5.404;2023-04-01T21:16:03;5.82;;;3.60;;
75413;SDS011;64758;52.122;5.404;2023-04-01T21:18:49;4.63;;;3.20;;
75413;SDS011;64758;52.122;5.404;2023-04-01T21:32:11;4.82;;;3.08;;
75413;SDS011;64758;52.122;5.404;2023-04-01T21:43:48;6.07;;;3.40;;
75413;SDS011;64758;52.122;5.404;2023-04-01T21:46:42;5.20;;;3.83;;
75413;SDS011;64758;52.122;5.404;2023-04-01T22:06:06;6.55;;;4.03;;
75413;SDS011;64758;52.122;5.404;2023-04-01T22:09:02;5.55;;;4.00;;
75413;SDS011;64758;52.122;5.404;2023-04-01T22:14:38;5.75;;;4.25;;
75413;SDS011;64758;52.122;5.404;2023-04-01T22:17:14;5.50;;;3.60;;
75413;SDS011;64758;52.122;5.404;2023-04-01T22:19:48;6.57;;;4.55;;
75413;SDS011;64758;52.122;5.404;2023-04-01T22:22:21;5.30;;;3.75;;
75413;SDS011;64758;52.122;5.404;2023-04-01T22:25:08;4.40;;;3.38;;
75413;SDS011;64758;52.122;5.404;2023-04-01T22:27:49;4.90;;;3.50;;
75413;SDS011;64758;52.122;5.404;2023-04-01T22:33:08;6.15;;;3.95;;
75413;SDS011;64758;52.122;5.404;2023-04-01T22:41:32;7.18;;;4.15;;
75413;SDS011;64758;52.122;5.404;2023-04-01T22:44:18;7.53;;;4.17;;
75413;SDS011;64758;52.122;5.404;2023-04-01T22:49:37;8.57;;;4.50;;
75413;SDS011;64758;52.122;5.404;2023-04-01T22:55:04;6.95;;;3.90;;
75413;SDS011;64758;52.122;5.404;2023-04-01T22:57:41;8.43;;;5.33;;
75413;SDS011;64758;52.122;5.404;2023-04-01T23:05:35;7.15;;;4.70;;
75413;SDS011;64758;52.122;5.404;2023-04-01T23:08:29;7.95;;;4.20;;
75413;SDS011;64758;52.122;5.404;2023-04-01T23:11:58;7.40;;;5.07;;
75413;SDS011;64758;52.122;5.404;2023-04-01T23:19:34;11.38;;;5.25;;
75413;SDS011;64758;52.122;5.404;2023-04-01T23:22:11;7.38;;;5.10;;
75413;SDS011;64758;52.122;5.404;2023-04-01T23:25:04;8.37;;;4.10;;
75413;SDS011;64758;52.122;5.404;2023-04-01T23:30:45;8.57;;;5.10;;
75413;SDS011;64758;52.122;5.404;2023-04-01T23:38:21;8.43;;;4.57;;
75413;SDS011;64758;52.122;5.404;2023-04-01T23:40:51;10.70;;;5.57;;
75413;SDS011;64758;52.122;5.404;2023-04-01T23:43:26;9.93;;;5.30;;
75413;SDS011;64758;52.122;5.404;2023-04-01T23:46:00;10.43;;;5.63;;
75413;SDS011;64758;52.122;5.404;2023-04-01T23:48:33;7.43;;;4.10;;
75413;SDS011;64758;52.122;5.404;2023-04-01T23:51:04;10.00;;;6.20;;
75413;SDS011;64758;52.122;5.404;2023-04-01T23:53:45;8.80;;;5.13;;
75413;SDS011;64758;52.122;5.404;2023-04-01T23:56:17;8.52;;;5.88;;
75413;SDS011;64758;52.122;5.404;2023-04-01T23:58:44;11.70;;;6.03;;
